createdAt,value
2023-04-10T00:00:41.617Z,26.75
2023-04-10T00:03:27.702Z,21.90
2023-04-10T00:06:12.941Z,20.95
2023-04-10T00:08:58.887Z,21.80
2023-04-10T00:11:44.250Z,25.20
2023-04-10T00:14:29.491Z,31.08
2023-04-10T00:17:14.873Z,24.58
2023-04-10T00:20:00.552Z,27.77
2023-04-10T00:22:45.548Z,24.88
2023-04-10T00:25:30.875Z,24.58
2023-04-10T00:28:17.304Z,27.55
2023-04-10T00:31:02.402Z,23.38
2023-04-10T00:33:47.788Z,20.02
2023-04-10T00:36:33.405Z,19.88
2023-04-10T00:39:19.034Z,24.92
2023-04-10T00:42:06.568Z,20.33
2023-04-10T00:44:51.688Z,23.30
2023-04-10T00:47:38.150Z,26.58
2023-04-10T00:50:23.520Z,27.48
2023-04-10T00:53:08.996Z,27.13
2023-04-10T00:55:55.272Z,26.20
2023-04-10T00:58:40.331Z,26.13
2023-04-10T01:01:25.814Z,26.77
2023-04-10T01:04:11.727Z,24.30
2023-04-10T01:07:15.210Z,34.15
2023-04-10T01:10:07.036Z,24.75
2023-04-10T01:13:08.793Z,22.20
2023-04-10T01:16:03.336Z,24.17
2023-04-10T01:19:01.428Z,27.17
2023-04-10T01:21:47.866Z,25.50
2023-04-10T01:25:00.440Z,27.42
2023-04-10T01:28:04.754Z,27.60
2023-04-10T01:30:58.080Z,23.13
2023-04-10T01:33:47.916Z,26.30
2023-04-10T01:36:38.033Z,27.88
2023-04-10T01:39:26.427Z,25.05
2023-04-10T01:42:15.031Z,19.48
2023-04-10T01:45:01.792Z,22.70
2023-04-10T01:47:48.302Z,24.42
2023-04-10T01:50:34.690Z,27.88
2023-04-10T01:53:20.723Z,21.50
2023-04-10T01:56:08.430Z,24.85
2023-04-10T01:58:53.859Z,25.92
2023-04-10T02:01:38.856Z,23.40
2023-04-10T02:04:26.549Z,21.48
2023-04-10T02:07:29.096Z,22.17
2023-04-10T02:10:24.760Z,24.35
2023-04-10T02:13:12.241Z,22.92
2023-04-10T02:16:04.044Z,24.00
2023-04-10T02:18:50.725Z,22.70
2023-04-10T02:21:36.682Z,24.30
2023-04-10T02:24:22.697Z,21.90
2023-04-10T02:27:07.952Z,23.30
2023-04-10T02:29:53.167Z,27.05
2023-04-10T02:32:38.693Z,21.58
2023-04-10T02:35:24.044Z,19.65
2023-04-10T02:38:09.366Z,22.70
2023-04-10T02:40:54.681Z,24.35
2023-04-10T02:43:40.471Z,21.95
2023-04-10T02:46:26.030Z,28.42
2023-04-10T02:49:11.117Z,27.58
2023-04-10T02:51:56.735Z,25.13
2023-04-10T02:54:41.801Z,31.08
2023-04-10T02:57:27.377Z,28.42
2023-04-10T03:00:13.175Z,23.33
2023-04-10T03:02:58.388Z,23.80
2023-04-10T03:05:43.906Z,27.10
2023-04-10T03:08:30.432Z,29.48
2023-04-10T03:11:15.508Z,27.45
2023-04-10T03:14:01.133Z,28.83
2023-04-10T03:16:47.848Z,24.83
2023-04-10T03:19:32.909Z,24.27
2023-04-10T03:22:18.258Z,26.73
2023-04-10T03:25:03.550Z,23.52
2023-04-10T03:27:48.986Z,34.80
2023-04-10T03:30:37.036Z,28.23
2023-04-10T03:33:22.401Z,26.92
2023-04-10T03:36:08.612Z,27.08
2023-04-10T03:38:54.069Z,20.98
2023-04-10T03:41:39.285Z,22.98
2023-04-10T03:44:24.594Z,30.73
2023-04-10T03:47:10.030Z,23.38
2023-04-10T03:49:55.050Z,24.60
2023-04-10T03:52:40.471Z,31.27
2023-04-10T03:55:25.955Z,29.63
2023-04-10T03:58:12.296Z,32.70
2023-04-10T04:00:57.790Z,41.13
2023-04-10T04:03:43.462Z,36.10
2023-04-10T04:06:29.043Z,40.08
2023-04-10T04:09:14.459Z,40.20
2023-04-10T04:11:59.444Z,38.35
2023-04-10T04:14:45.300Z,36.05
2023-04-10T04:17:30.831Z,40.58
2023-04-10T04:20:16.148Z,41.28
2023-04-10T04:23:01.511Z,41.10
2023-04-10T04:25:46.912Z,36.58
2023-04-10T04:28:32.077Z,37.35
2023-04-10T04:31:17.418Z,36.05
2023-04-10T04:34:02.698Z,31.55
2023-04-10T04:36:47.940Z,32.58
2023-04-10T04:39:33.315Z,30.27
2023-04-10T04:42:18.728Z,29.13
2023-04-10T04:45:04.267Z,29.02
2023-04-10T04:47:49.371Z,33.47
2023-04-10T04:50:35.292Z,32.10
2023-04-10T04:53:20.539Z,32.72
2023-04-10T04:56:06.370Z,32.50
2023-04-10T04:58:51.635Z,31.52
2023-04-10T05:01:37.233Z,29.23
2023-04-10T05:04:22.581Z,33.00
2023-04-10T05:07:07.717Z,31.23
2023-04-10T05:09:53.231Z,29.60
2023-04-10T05:12:38.587Z,30.83
2023-04-10T05:15:24.338Z,24.27
2023-04-10T05:18:09.549Z,24.52
2023-04-10T05:20:54.903Z,24.80
2023-04-10T05:23:40.405Z,30.27
2023-04-10T05:26:25.671Z,34.97
2023-04-10T05:29:11.017Z,31.70
2023-04-10T05:31:56.395Z,30.85
2023-04-10T05:34:41.600Z,36.35
2023-04-10T05:37:26.953Z,28.83
2023-04-10T05:40:12.223Z,29.70
2023-04-10T05:42:57.765Z,32.55
2023-04-10T05:45:46.166Z,35.88
2023-04-10T05:48:31.561Z,28.17
2023-04-10T05:51:17.042Z,30.00
2023-04-10T05:54:02.167Z,45.17
2023-04-10T05:56:47.523Z,50.97
2023-04-10T05:59:32.757Z,46.83
2023-04-10T06:02:19.359Z,46.72
2023-04-10T06:05:05.338Z,49.63
2023-04-10T06:07:51.713Z,42.60
2023-04-10T06:10:36.994Z,45.97
2023-04-10T06:13:22.533Z,41.75
2023-04-10T06:16:08.551Z,39.33
2023-04-10T06:18:54.467Z,37.67
2023-04-10T06:21:40.152Z,41.97
2023-04-10T06:24:25.462Z,50.63
2023-04-10T06:27:10.662Z,52.25
2023-04-10T06:29:56.320Z,51.92
2023-04-10T06:32:41.835Z,54.83
2023-04-10T06:35:27.453Z,45.72
2023-04-10T06:38:12.742Z,49.50
2023-04-10T06:40:58.308Z,50.47
2023-04-10T06:43:43.792Z,48.53
2023-04-10T06:46:29.070Z,48.75
2023-04-10T06:49:14.354Z,56.40
2023-04-10T06:51:59.447Z,54.47
2023-04-10T06:54:44.675Z,48.85
2023-04-10T06:57:29.867Z,54.22
2023-04-10T07:00:15.690Z,53.25
2023-04-10T07:03:00.946Z,49.15
2023-04-10T07:05:46.522Z,53.25
2023-04-10T07:08:31.529Z,53.97
2023-04-10T07:11:17.212Z,51.08
2023-04-10T07:14:02.193Z,54.15
2023-04-10T07:16:48.190Z,50.85
2023-04-10T07:19:33.726Z,54.35
2023-04-10T07:22:18.832Z,49.55
2023-04-10T07:25:04.419Z,49.13
2023-04-10T07:27:49.409Z,53.78
2023-04-10T07:30:34.658Z,55.67
2023-04-10T07:33:20.283Z,52.50
2023-04-10T07:36:07.059Z,73.63
2023-04-10T07:38:52.859Z,54.03
2023-04-10T07:41:38.541Z,49.45
2023-04-10T07:44:23.715Z,47.38
2023-04-10T07:47:09.091Z,39.58
2023-04-10T07:49:54.340Z,61.10
2023-04-10T07:52:39.719Z,61.72
2023-04-10T07:55:24.975Z,44.08
2023-04-10T07:58:10.956Z,40.53
2023-04-10T08:00:56.379Z,39.28
2023-04-10T08:03:47.612Z,39.85
2023-04-10T08:06:33.408Z,41.05
2023-04-10T08:09:18.439Z,47.47
2023-04-10T08:12:03.860Z,42.72
2023-04-10T08:14:49.529Z,46.00
2023-04-10T08:17:34.962Z,43.45
2023-04-10T08:20:20.389Z,47.55
2023-04-10T08:23:17.018Z,41.90
2023-04-10T08:26:05.846Z,42.17
2023-04-10T08:28:53.110Z,47.28
2023-04-10T08:31:38.736Z,41.42
2023-04-10T08:34:24.470Z,44.72
2023-04-10T08:37:12.253Z,40.30
2023-04-10T08:39:58.788Z,44.80
2023-04-10T08:42:44.019Z,40.95
2023-04-10T08:45:29.026Z,42.63
2023-04-10T08:48:16.352Z,44.78
2023-04-10T08:51:04.376Z,43.25
2023-04-10T08:53:51.969Z,46.13
2023-04-10T08:56:40.330Z,42.35
2023-04-10T08:59:25.651Z,43.13
2023-04-10T09:02:11.116Z,42.85
2023-04-10T09:05:00.614Z,44.95
2023-04-10T09:07:45.847Z,47.97
2023-04-10T09:10:31.692Z,40.17
2023-04-10T09:13:16.641Z,42.58
2023-04-10T09:16:02.103Z,32.03
2023-04-10T09:18:50.782Z,35.55
2023-04-10T09:21:36.050Z,41.05
2023-04-10T09:24:21.469Z,40.83
2023-04-10T09:27:07.620Z,39.88
2023-04-10T09:29:52.872Z,35.55
2023-04-10T09:32:41.448Z,46.10
2023-04-10T09:35:37.012Z,47.85
2023-04-10T09:38:22.402Z,41.70
2023-04-10T09:41:08.591Z,41.78
2023-04-10T09:44:08.033Z,39.88
2023-04-10T09:46:54.258Z,40.13
2023-04-10T09:50:06.552Z,38.10
2023-04-10T09:52:57.930Z,47.25
2023-04-10T09:55:43.807Z,37.95
2023-04-10T09:58:29.469Z,36.33
2023-04-10T10:01:15.081Z,35.75
2023-04-10T10:04:04.884Z,40.55
2023-04-10T10:06:50.545Z,37.88
2023-04-10T10:09:37.084Z,38.20
2023-04-10T10:12:27.283Z,54.92
2023-04-10T10:15:35.508Z,47.80
2023-04-10T10:18:44.095Z,38.63
2023-04-10T10:21:30.739Z,46.42
2023-04-10T10:24:17.258Z,36.25
2023-04-10T10:27:04.221Z,36.80
2023-04-10T10:29:50.550Z,44.08
2023-04-10T10:32:36.619Z,43.25
2023-04-10T10:35:25.462Z,47.53
2023-04-10T10:38:12.789Z,51.20
2023-04-10T10:41:28.716Z,53.30
2023-04-10T10:44:52.686Z,47.47
2023-04-10T10:47:50.870Z,49.25
2023-04-10T10:50:59.260Z,52.53
2023-04-10T10:53:45.341Z,42.33
2023-04-10T10:56:34.668Z,45.20
2023-04-10T10:59:48.938Z,49.65
2023-04-10T11:02:34.471Z,54.53
2023-04-10T11:05:55.295Z,49.38
2023-04-10T11:08:44.356Z,51.05
2023-04-10T11:11:29.774Z,50.15
2023-04-10T11:14:18.036Z,53.08
2023-04-10T11:17:03.253Z,46.45
2023-04-10T11:20:00.583Z,56.05
2023-04-10T11:23:11.908Z,50.10
2023-04-10T11:25:57.517Z,45.42
2023-04-10T11:28:42.910Z,44.28
2023-04-10T11:31:28.764Z,47.40
2023-04-10T11:34:15.787Z,48.60
2023-04-10T11:37:03.014Z,49.42
2023-04-10T11:39:48.192Z,47.53
2023-04-10T11:42:33.558Z,50.63
2023-04-10T11:45:28.700Z,49.80
2023-04-10T11:48:17.054Z,51.38
2023-04-10T11:51:10.521Z,43.47
2023-04-10T11:54:13.885Z,61.75
2023-04-10T11:57:02.898Z,49.17
2023-04-10T11:59:51.421Z,47.13
2023-04-10T12:02:51.700Z,45.17
2023-04-10T12:05:55.436Z,51.78
2023-04-10T12:08:49.490Z,41.65
2023-04-10T12:11:35.108Z,44.95
2023-04-10T12:14:24.150Z,37.78
2023-04-10T12:17:11.127Z,47.38
2023-04-10T12:19:57.634Z,46.35
2023-04-10T12:22:44.254Z,40.53
2023-04-10T12:25:29.468Z,38.90
2023-04-10T12:28:19.081Z,39.45
2023-04-10T12:31:04.929Z,40.00
2023-04-10T12:33:53.670Z,52.30
2023-04-10T12:36:38.790Z,41.20
2023-04-10T12:39:24.973Z,48.13
2023-04-10T12:42:19.448Z,33.85
2023-04-10T12:45:05.599Z,40.38
2023-04-10T12:47:54.164Z,50.90
2023-04-10T12:50:49.872Z,41.47
2023-04-10T12:53:44.479Z,41.03
2023-04-10T12:56:41.067Z,39.83
2023-04-10T12:59:26.917Z,38.85
2023-04-10T13:02:12.237Z,34.70
2023-04-10T13:04:57.642Z,43.78
2023-04-10T13:07:43.281Z,45.05
2023-04-10T13:10:28.763Z,39.55
2023-04-10T13:13:14.312Z,43.20
2023-04-10T13:16:00.134Z,37.78
2023-04-10T13:18:45.252Z,38.25
2023-04-10T13:21:30.521Z,33.63
2023-04-10T13:24:16.759Z,41.70
2023-04-10T13:27:02.356Z,38.50
2023-04-10T13:29:47.460Z,37.22
2023-04-10T13:32:32.582Z,32.83
2023-04-10T13:35:17.918Z,18.92
2023-04-10T13:38:04.077Z,16.05
2023-04-10T13:40:49.562Z,11.18
2023-04-10T13:43:34.764Z,11.50
2023-04-10T13:46:20.215Z,17.95
2023-04-10T13:49:06.796Z,16.33
2023-04-10T13:51:52.043Z,12.15
2023-04-10T13:54:37.412Z,10.90
2023-04-10T13:57:22.649Z,11.10
2023-04-10T14:00:08.657Z,11.20
2023-04-10T14:02:53.788Z,10.10
2023-04-10T14:05:39.641Z,13.32
2023-04-10T14:08:24.676Z,9.13
2023-04-10T14:11:09.888Z,18.75
2023-04-10T14:13:55.470Z,10.80
2023-04-10T14:16:40.651Z,14.80
2023-04-10T14:19:25.934Z,12.25
2023-04-10T14:22:11.320Z,9.25
2023-04-10T14:25:09.398Z,9.07
2023-04-10T14:27:57.628Z,11.45
2023-04-10T14:30:43.738Z,12.40
2023-04-10T14:33:29.063Z,10.32
2023-04-10T14:36:14.388Z,13.00
2023-04-10T14:38:59.750Z,17.35
2023-04-10T14:41:45.251Z,13.73
2023-04-10T14:44:30.828Z,13.75
2023-04-10T14:47:15.865Z,6.65
2023-04-10T14:50:00.938Z,11.65
2023-04-10T14:52:46.575Z,8.80
2023-04-10T14:55:32.003Z,7.70
2023-04-10T14:58:17.269Z,7.70
2023-04-10T15:01:02.565Z,11.02
2023-04-10T15:03:48.712Z,11.35
2023-04-10T15:06:34.378Z,14.85
2023-04-10T15:09:21.479Z,16.10
2023-04-10T15:12:07.470Z,10.18
2023-04-10T15:14:52.553Z,13.38
2023-04-10T15:17:38.106Z,11.75
2023-04-10T15:20:23.429Z,11.40
2023-04-10T15:23:09.140Z,12.23
2023-04-10T15:25:55.114Z,14.27
2023-04-10T15:28:41.490Z,14.88
2023-04-10T15:31:26.950Z,13.93
2023-04-10T15:34:13.332Z,13.07
2023-04-10T15:36:58.615Z,13.85
2023-04-10T15:39:43.915Z,9.25
2023-04-10T15:42:29.518Z,11.38
2023-04-10T15:45:14.818Z,12.95
2023-04-10T15:48:01.349Z,22.63
2023-04-10T15:50:46.524Z,24.83
2023-04-10T15:53:31.910Z,16.50
2023-04-10T15:56:17.163Z,14.63
2023-04-10T15:59:05.261Z,13.35
2023-04-10T16:01:50.651Z,12.48
2023-04-10T16:04:35.994Z,27.05
2023-04-10T16:07:21.491Z,28.02
2023-04-10T16:10:09.185Z,18.83
2023-04-10T16:12:56.487Z,17.80
2023-04-10T16:15:41.822Z,20.25
2023-04-10T16:18:27.441Z,23.52
2023-04-10T16:21:14.323Z,21.13
2023-04-10T16:24:00.933Z,21.95
2023-04-10T16:26:46.382Z,20.10
2023-04-10T16:29:31.625Z,20.67
2023-04-10T16:32:19.412Z,20.38
2023-04-10T16:35:04.916Z,39.72
2023-04-10T16:37:50.370Z,36.47
2023-04-10T16:40:35.366Z,28.02
2023-04-10T16:43:21.297Z,20.75
2023-04-10T16:46:07.922Z,20.85
2023-04-10T16:48:53.604Z,18.52
2023-04-10T16:51:39.143Z,42.55
2023-04-10T16:54:24.063Z,78.90
2023-04-10T16:57:09.456Z,66.28
2023-04-10T16:59:59.006Z,28.77
2023-04-10T17:02:44.203Z,19.92
2023-04-10T17:05:34.857Z,20.20
2023-04-10T17:08:19.849Z,19.90
2023-04-10T17:11:05.333Z,19.33
2023-04-10T17:13:50.641Z,19.63
2023-04-10T17:16:35.830Z,19.33
2023-04-10T17:19:21.223Z,12.15
2023-04-10T17:22:15.446Z,15.30
2023-04-10T17:25:00.963Z,16.60
2023-04-10T17:27:46.421Z,12.25
2023-04-10T17:30:31.663Z,14.07
2023-04-10T17:33:16.934Z,11.25
2023-04-10T17:36:02.454Z,17.52
2023-04-10T17:38:47.963Z,21.98
2023-04-10T17:41:33.120Z,20.70
2023-04-10T17:44:19.589Z,19.92
2023-04-10T17:47:05.188Z,19.23
2023-04-10T17:49:50.299Z,14.45
2023-04-10T17:52:35.548Z,15.43
2023-04-10T17:55:21.398Z,14.23
2023-04-10T17:58:07.244Z,15.88
2023-04-10T18:00:52.750Z,13.90
2023-04-10T18:03:38.625Z,10.48
2023-04-10T18:06:24.566Z,20.15
2023-04-10T18:09:09.671Z,14.23
2023-04-10T18:11:55.013Z,12.57
2023-04-10T18:14:42.539Z,19.67
2023-04-10T18:17:27.611Z,16.33
2023-04-10T18:20:12.814Z,10.45
2023-04-10T18:22:58.006Z,9.52
2023-04-10T18:25:52.109Z,7.30
2023-04-10T18:28:38.744Z,14.15
2023-04-10T18:31:23.906Z,15.20
2023-04-10T18:34:09.075Z,12.52
2023-04-10T18:36:55.617Z,10.98
2023-04-10T18:39:40.680Z,14.25
2023-04-10T18:42:27.721Z,10.95
2023-04-10T18:45:13.181Z,10.27
2023-04-10T18:47:58.614Z,14.88
2023-04-10T18:50:44.272Z,25.15
2023-04-10T18:53:29.492Z,28.38
2023-04-10T18:56:14.616Z,22.63
2023-04-10T18:58:59.947Z,12.80
2023-04-10T19:01:45.001Z,15.85
2023-04-10T19:04:30.358Z,13.55
2023-04-10T19:07:15.854Z,14.85
2023-04-10T19:10:01.335Z,19.45
2023-04-10T19:12:47.284Z,15.02
2023-04-10T19:15:32.390Z,20.20
2023-04-10T19:18:17.917Z,13.05
2023-04-10T19:21:04.231Z,15.63
2023-04-10T19:23:49.589Z,16.33
2023-04-10T19:26:34.999Z,12.02
2023-04-10T19:29:20.205Z,10.98
2023-04-10T19:32:05.653Z,15.18
2023-04-10T19:34:51.473Z,11.00
2023-04-10T19:37:36.574Z,12.02
2023-04-10T19:40:22.172Z,7.43
2023-04-10T19:43:07.196Z,11.13
2023-04-10T19:45:53.414Z,7.50
2023-04-10T19:48:38.589Z,13.63
2023-04-10T19:51:24.074Z,18.90
2023-04-10T19:54:09.292Z,25.33
2023-04-10T19:56:54.556Z,39.72
2023-04-10T19:59:39.836Z,42.28
2023-04-10T20:02:25.304Z,24.70
2023-04-10T20:05:10.799Z,15.45
2023-04-10T20:07:56.452Z,14.02
2023-04-10T20:10:41.490Z,10.93
2023-04-10T20:13:27.166Z,13.48
2023-04-10T20:16:12.685Z,15.77
2023-04-10T20:18:57.987Z,16.83
2023-04-10T20:21:43.242Z,16.45
2023-04-10T20:24:29.500Z,10.18
2023-04-10T20:27:15.565Z,14.90
2023-04-10T20:30:00.634Z,17.00
2023-04-10T20:32:47.056Z,14.57
2023-04-10T20:35:32.867Z,16.20
2023-04-10T20:38:18.303Z,12.45
2023-04-10T20:41:03.437Z,13.15
2023-04-10T20:43:48.691Z,8.63
2023-04-10T20:46:34.194Z,13.73
2023-04-10T20:49:19.432Z,7.32
2023-04-10T20:52:06.363Z,10.90
2023-04-10T20:54:51.690Z,8.40
2023-04-10T20:57:36.925Z,7.32
2023-04-10T21:00:22.402Z,5.60
2023-04-10T21:03:08.148Z,9.80
2023-04-10T21:05:54.049Z,13.05
2023-04-10T21:08:39.622Z,6.78
2023-04-10T21:11:27.257Z,7.10
2023-04-10T21:14:13.627Z,10.80
2023-04-10T21:16:58.806Z,9.32
2023-04-10T21:19:44.043Z,7.25
2023-04-10T21:22:29.579Z,8.05
2023-04-10T21:25:15.256Z,6.70
2023-04-10T21:28:00.715Z,8.25
2023-04-10T21:30:46.158Z,8.05
2023-04-10T21:33:32.665Z,6.88
2023-04-10T21:36:18.370Z,8.43
2023-04-10T21:39:03.712Z,8.07
2023-04-10T21:41:48.952Z,7.78
2023-04-10T21:44:34.310Z,7.25
2023-04-10T21:47:19.574Z,4.55
2023-04-10T21:50:05.538Z,5.47
2023-04-10T21:52:50.792Z,5.07
2023-04-10T21:55:36.034Z,9.45
2023-04-10T21:58:21.440Z,5.80
2023-04-10T22:01:08.090Z,6.78
2023-04-10T22:03:54.283Z,6.68
2023-04-10T22:06:39.416Z,6.07
2023-04-10T22:09:24.899Z,8.40
2023-04-10T22:12:10.368Z,7.95
2023-04-10T22:14:55.753Z,6.18
2023-04-10T22:17:41.151Z,5.70
2023-04-10T22:20:26.372Z,7.80
2023-04-10T22:23:11.718Z,5.65
2023-04-10T22:26:00.938Z,5.38
2023-04-10T22:28:46.305Z,7.53
2023-04-10T22:31:31.533Z,5.15
2023-04-10T22:34:16.753Z,8.18
2023-04-10T22:37:02.484Z,7.95
2023-04-10T22:39:47.559Z,5.18
2023-04-10T22:42:32.839Z,7.28
2023-04-10T22:45:18.331Z,8.07
2023-04-10T22:48:03.810Z,11.15
2023-04-10T22:50:49.454Z,8.88
2023-04-10T22:53:34.877Z,5.47
2023-04-10T22:56:26.142Z,7.85
2023-04-10T22:59:11.192Z,5.72
2023-04-10T23:01:56.557Z,6.00
2023-04-10T23:04:41.775Z,6.03
2023-04-10T23:07:27.952Z,8.90
2023-04-10T23:10:13.188Z,7.63
2023-04-10T23:12:58.710Z,9.50
2023-04-10T23:15:51.967Z,7.43
2023-04-10T23:18:37.657Z,13.10
2023-04-10T23:21:22.981Z,12.88
2023-04-10T23:24:08.256Z,15.02
2023-04-10T23:26:53.334Z,11.68
2023-04-10T23:29:38.558Z,7.72
2023-04-10T23:32:23.936Z,8.50
2023-04-10T23:35:09.439Z,14.40
2023-04-10T23:37:54.879Z,11.88
2023-04-10T23:40:39.846Z,9.38
2023-04-10T23:43:25.828Z,10.77
2023-04-10T23:46:10.925Z,9.68
2023-04-10T23:48:56.775Z,10.90
2023-04-10T23:51:42.047Z,9.82
2023-04-10T23:54:27.374Z,9.90
2023-04-10T23:57:12.815Z,13.10
2023-04-10T23:59:58.077Z,11.88
